sensor_id;sensor_type;location;lat;lon;timestamp;P1;durP1;ratioP1;P2;durP2;ratioP2
86135;SDS011;76795;51.360;4.546;2024-02-26T00:00:06;4.82;;;3.15;;
86135;SDS011;76795;51.360;4.546;2024-02-26T00:02:35;5.10;;;3.10;;
86135;SDS011;76795;51.360;4.546;2024-02-26T00:05:04;3.08;;;2.58;;
86135;SDS011;76795;51.360;4.546;2024-02-26T00:07:31;5.32;;;3.10;;
86135;SDS011;76795;51.360;4.546;2024-02-26T00:09:57;5.28;;;3.45;;
86135;SDS011;76795;51.360;4.546;2024-02-26T00:12:22;4.90;;;2.70;;
86135;SDS011;76795;51.360;4.546;2024-02-26T00:14:48;5.05;;;2.95;;
86135;SDS011;76795;51.360;4.546;2024-02-26T00:17:14;5.50;;;3.00;;
86135;SDS011;76795;51.360;4.546;2024-02-26T00:19:40;4.82;;;2.83;;
86135;SDS011;76795;51.360;4.546;2024-02-26T00:22:06;4.20;;;2.80;;
86135;SDS011;76795;51.360;4.546;2024-02-26T00:24:32;4.40;;;2.78;;
86135;SDS011;76795;51.360;4.546;2024-02-26T00:26:58;5.93;;;3.00;;
86135;SDS011;76795;51.360;4.546;2024-02-26T00:29:24;3.95;;;2.70;;
86135;SDS011;76795;51.360;4.546;2024-02-26T00:31:50;4.30;;;3.03;;
86135;SDS011;76795;51.360;4.546;2024-02-26T00:34:16;6.60;;;3.30;;
86135;SDS011;76795;51.360;4.546;2024-02-26T00:36:42;4.70;;;3.00;;
86135;SDS011;76795;51.360;4.546;2024-02-26T00:39:08;4.32;;;2.80;;
86135;SDS011;76795;51.360;4.546;2024-02-26T00:41:37;3.58;;;2.78;;
86135;SDS011;76795;51.360;4.546;2024-02-26T00:44:04;4.00;;;3.00;;
86135;SDS011;76795;51.360;4.546;2024-02-26T00:46:29;5.18;;;2.80;;
86135;SDS011;76795;51.360;4.546;2024-02-26T00:48:55;5.35;;;2.80;;
86135;SDS011;76795;51.360;4.546;2024-02-26T00:51:21;4.80;;;2.97;;
86135;SDS011;76795;51.360;4.546;2024-02-26T00:53:46;5.22;;;3.10;;
86135;SDS011;76795;51.360;4.546;2024-02-26T00:56:12;4.28;;;2.83;;
86135;SDS011;76795;51.360;4.546;2024-02-26T00:58:37;5.10;;;2.85;;
86135;SDS011;76795;51.360;4.546;2024-02-26T01:01:03;5.50;;;2.85;;
86135;SDS011;76795;51.360;4.546;2024-02-26T01:03:29;5.20;;;2.80;;
86135;SDS011;76795;51.360;4.546;2024-02-26T01:05:55;4.57;;;2.78;;
86135;SDS011;76795;51.360;4.546;2024-02-26T01:08:20;4.47;;;2.75;;
86135;SDS011;76795;51.360;4.546;2024-02-26T01:10:46;4.85;;;2.92;;
86135;SDS011;76795;51.360;4.546;2024-02-26T01:13:12;4.72;;;3.03;;
86135;SDS011;76795;51.360;4.546;2024-02-26T01:15:38;4.57;;;2.95;;
86135;SDS011;76795;51.360;4.546;2024-02-26T01:18:03;4.30;;;3.03;;
86135;SDS011;76795;51.360;4.546;2024-02-26T01:20:29;7.22;;;3.38;;
86135;SDS011;76795;51.360;4.546;2024-02-26T01:22:55;6.47;;;3.05;;
86135;SDS011;76795;51.360;4.546;2024-02-26T01:25:20;6.38;;;3.50;;
86135;SDS011;76795;51.360;4.546;2024-02-26T01:27:46;4.22;;;2.90;;
86135;SDS011;76795;51.360;4.546;2024-02-26T01:30:12;4.55;;;2.80;;
86135;SDS011;76795;51.360;4.546;2024-02-26T01:32:40;6.20;;;3.67;;
86135;SDS011;76795;51.360;4.546;2024-02-26T01:35:06;6.43;;;3.35;;
86135;SDS011;76795;51.360;4.546;2024-02-26T01:37:35;5.28;;;3.30;;
86135;SDS011;76795;51.360;4.546;2024-02-26T01:40:01;7.35;;;3.90;;
86135;SDS011;76795;51.360;4.546;2024-02-26T01:42:29;5.47;;;3.72;;
86135;SDS011;76795;51.360;4.546;2024-02-26T01:44:56;7.28;;;4.00;;
86135;SDS011;76795;51.360;4.546;2024-02-26T01:47:21;5.85;;;3.60;;
86135;SDS011;76795;51.360;4.546;2024-02-26T01:49:48;6.07;;;3.75;;
86135;SDS011;76795;51.360;4.546;2024-02-26T01:52:14;6.03;;;3.80;;
86135;SDS011;76795;51.360;4.546;2024-02-26T01:54:40;9.45;;;4.53;;
86135;SDS011;76795;51.360;4.546;2024-02-26T01:57:07;7.75;;;4.25;;
86135;SDS011;76795;51.360;4.546;2024-02-26T01:59:34;8.75;;;4.55;;
86135;SDS011;76795;51.360;4.546;2024-02-26T02:02:01;9.27;;;4.65;;
86135;SDS011;76795;51.360;4.546;2024-02-26T02:04:28;6.82;;;4.70;;
86135;SDS011;76795;51.360;4.546;2024-02-26T02:06:55;10.77;;;5.45;;
86135;SDS011;76795;51.360;4.546;2024-02-26T02:09:22;6.40;;;4.07;;
86135;SDS011;76795;51.360;4.546;2024-02-26T02:11:48;7.70;;;5.00;;
86135;SDS011;76795;51.360;4.546;2024-02-26T02:14:14;9.15;;;5.13;;
86135;SDS011;76795;51.360;4.546;2024-02-26T02:16:40;9.52;;;6.50;;
86135;SDS011;76795;51.360;4.546;2024-02-26T02:19:06;9.05;;;5.60;;
86135;SDS011;76795;51.360;4.546;2024-02-26T02:21:31;8.43;;;5.55;;
86135;SDS011;76795;51.360;4.546;2024-02-26T02:23:57;11.95;;;6.22;;
86135;SDS011;76795;51.360;4.546;2024-02-26T02:26:22;9.43;;;5.32;;
86135;SDS011;76795;51.360;4.546;2024-02-26T02:28:48;8.45;;;6.25;;
86135;SDS011;76795;51.360;4.546;2024-02-26T02:31:15;10.13;;;5.68;;
86135;SDS011;76795;51.360;4.546;2024-02-26T02:33:41;8.70;;;5.43;;
86135;SDS011;76795;51.360;4.546;2024-02-26T02:36:07;8.45;;;5.35;;
86135;SDS011;76795;51.360;4.546;2024-02-26T02:38:35;9.68;;;6.18;;
86135;SDS011;76795;51.360;4.546;2024-02-26T02:41:02;10.10;;;6.10;;
86135;SDS011;76795;51.360;4.546;2024-02-26T02:43:27;7.82;;;5.53;;
86135;SDS011;76795;51.360;4.546;2024-02-26T02:45:53;10.23;;;5.90;;
86135;SDS011;76795;51.360;4.546;2024-02-26T02:48:19;9.43;;;5.40;;
86135;SDS011;76795;51.360;4.546;2024-02-26T02:50:44;8.35;;;5.13;;
86135;SDS011;76795;51.360;4.546;2024-02-26T02:53:10;9.70;;;6.05;;
86135;SDS011;76795;51.360;4.546;2024-02-26T02:55:36;6.95;;;4.90;;
86135;SDS011;76795;51.360;4.546;2024-02-26T02:58:02;7.78;;;5.55;;
86135;SDS011;76795;51.360;4.546;2024-02-26T03:00:28;8.52;;;5.70;;
86135;SDS011;76795;51.360;4.546;2024-02-26T03:02:53;6.47;;;4.50;;
86135;SDS011;76795;51.360;4.546;2024-02-26T03:05:19;7.93;;;5.47;;
86135;SDS011;76795;51.360;4.546;2024-02-26T03:07:45;8.25;;;5.10;;
86135;SDS011;76795;51.360;4.546;2024-02-26T03:10:10;7.25;;;4.80;;
86135;SDS011;76795;51.360;4.546;2024-02-26T03:12:36;8.20;;;4.75;;
86135;SDS011;76795;51.360;4.546;2024-02-26T03:15:02;5.97;;;4.07;;
86135;SDS011;76795;51.360;4.546;2024-02-26T03:17:28;6.70;;;4.85;;
86135;SDS011;76795;51.360;4.546;2024-02-26T03:19:54;8.50;;;4.75;;
86135;SDS011;76795;51.360;4.546;2024-02-26T03:22:20;7.70;;;5.35;;
86135;SDS011;76795;51.360;4.546;2024-02-26T03:24:46;7.28;;;4.97;;
86135;SDS011;76795;51.360;4.546;2024-02-26T03:27:12;6.97;;;5.15;;
86135;SDS011;76795;51.360;4.546;2024-02-26T03:29:39;7.63;;;5.10;;
86135;SDS011;76795;51.360;4.546;2024-02-26T03:32:05;6.88;;;4.72;;
86135;SDS011;76795;51.360;4.546;2024-02-26T03:34:34;6.70;;;4.53;;
86135;SDS011;76795;51.360;4.546;2024-02-26T03:37:00;6.75;;;5.20;;
86135;SDS011;76795;51.360;4.546;2024-02-26T03:39:26;8.27;;;4.88;;
86135;SDS011;76795;51.360;4.546;2024-02-26T03:41:51;6.95;;;4.90;;
86135;SDS011;76795;51.360;4.546;2024-02-26T03:44:17;7.40;;;4.95;;
86135;SDS011;76795;51.360;4.546;2024-02-26T03:46:43;8.93;;;5.25;;
86135;SDS011;76795;51.360;4.546;2024-02-26T03:49:08;6.53;;;4.80;;
86135;SDS011;76795;51.360;4.546;2024-02-26T03:51:34;6.60;;;5.05;;
86135;SDS011;76795;51.360;4.546;2024-02-26T03:54:00;6.63;;;4.15;;
86135;SDS011;76795;51.360;4.546;2024-02-26T03:56:26;7.05;;;4.55;;
86135;SDS011;76795;51.360;4.546;2024-02-26T03:58:52;5.93;;;4.15;;
86135;SDS011;76795;51.360;4.546;2024-02-26T04:01:18;6.70;;;4.93;;
86135;SDS011;76795;51.360;4.546;2024-02-26T04:03:44;6.18;;;3.67;;
86135;SDS011;76795;51.360;4.546;2024-02-26T04:06:10;8.30;;;4.63;;
86135;SDS011;76795;51.360;4.546;2024-02-26T04:08:36;6.72;;;4.10;;
86135;SDS011;76795;51.360;4.546;2024-02-26T04:11:03;7.00;;;4.13;;
86135;SDS011;76795;51.360;4.546;2024-02-26T04:13:32;7.70;;;5.30;;
86135;SDS011;76795;51.360;4.546;2024-02-26T04:15:58;8.13;;;5.13;;
86135;SDS011;76795;51.360;4.546;2024-02-26T04:18:26;6.57;;;4.82;;
86135;SDS011;76795;51.360;4.546;2024-02-26T04:20:52;7.35;;;5.15;;
86135;SDS011;76795;51.360;4.546;2024-02-26T04:23:18;7.57;;;4.63;;
86135;SDS011;76795;51.360;4.546;2024-02-26T04:25:44;6.63;;;4.63;;
86135;SDS011;76795;51.360;4.546;2024-02-26T04:28:10;7.75;;;5.43;;
86135;SDS011;76795;51.360;4.546;2024-02-26T04:30:36;8.43;;;5.10;;
86135;SDS011;76795;51.360;4.546;2024-02-26T04:33:01;8.40;;;5.72;;
86135;SDS011;76795;51.360;4.546;2024-02-26T04:35:27;8.75;;;5.05;;
86135;SDS011;76795;51.360;4.546;2024-02-26T04:37:53;7.78;;;5.13;;
86135;SDS011;76795;51.360;4.546;2024-02-26T04:40:19;6.32;;;4.15;;
86135;SDS011;76795;51.360;4.546;2024-02-26T04:42:44;6.75;;;5.10;;
86135;SDS011;76795;51.360;4.546;2024-02-26T04:45:10;8.52;;;5.55;;
86135;SDS011;76795;51.360;4.546;2024-02-26T04:47:36;8.95;;;4.88;;
86135;SDS011;76795;51.360;4.546;2024-02-26T04:50:01;6.65;;;4.68;;
86135;SDS011;76795;51.360;4.546;2024-02-26T04:52:27;7.25;;;4.57;;
86135;SDS011;76795;51.360;4.546;2024-02-26T04:54:53;8.55;;;4.85;;
86135;SDS011;76795;51.360;4.546;2024-02-26T04:57:19;8.05;;;5.25;;
86135;SDS011;76795;51.360;4.546;2024-02-26T04:59:46;6.20;;;4.30;;
86135;SDS011;76795;51.360;4.546;2024-02-26T05:02:12;7.43;;;4.57;;
86135;SDS011;76795;51.360;4.546;2024-02-26T05:04:38;7.65;;;5.38;;
86135;SDS011;76795;51.360;4.546;2024-02-26T05:07:03;8.50;;;4.88;;
86135;SDS011;76795;51.360;4.546;2024-02-26T05:09:29;7.53;;;4.40;;
86135;SDS011;76795;51.360;4.546;2024-02-26T05:11:55;7.35;;;4.82;;
86135;SDS011;76795;51.360;4.546;2024-02-26T05:14:21;8.35;;;5.35;;
86135;SDS011;76795;51.360;4.546;2024-02-26T05:16:46;7.93;;;4.68;;
86135;SDS011;76795;51.360;4.546;2024-02-26T05:19:13;8.80;;;5.93;;
86135;SDS011;76795;51.360;4.546;2024-02-26T05:21:39;8.80;;;5.90;;
86135;SDS011;76795;51.360;4.546;2024-02-26T05:24:05;7.85;;;5.03;;
86135;SDS011;76795;51.360;4.546;2024-02-26T05:26:31;10.73;;;6.28;;
86135;SDS011;76795;51.360;4.546;2024-02-26T05:28:57;7.50;;;5.25;;
86135;SDS011;76795;51.360;4.546;2024-02-26T05:31:24;10.45;;;5.40;;
86135;SDS011;76795;51.360;4.546;2024-02-26T05:33:51;9.15;;;6.32;;
86135;SDS011;76795;51.360;4.546;2024-02-26T05:36:20;9.07;;;6.38;;
86135;SDS011;76795;51.360;4.546;2024-02-26T05:38:47;9.10;;;5.45;;
86135;SDS011;76795;51.360;4.546;2024-02-26T05:41:16;11.07;;;6.10;;
86135;SDS011;76795;51.360;4.546;2024-02-26T05:43:51;8.70;;;6.03;;
86135;SDS011;76795;51.360;4.546;2024-02-26T05:46:18;9.00;;;5.32;;
86135;SDS011;76795;51.360;4.546;2024-02-26T05:48:44;8.20;;;5.63;;
86135;SDS011;76795;51.360;4.546;2024-02-26T05:51:11;7.15;;;4.85;;
86135;SDS011;76795;51.360;4.546;2024-02-26T05:53:37;8.43;;;5.30;;
86135;SDS011;76795;51.360;4.546;2024-02-26T05:56:03;10.27;;;5.53;;
86135;SDS011;76795;51.360;4.546;2024-02-26T05:58:28;8.35;;;5.07;;
86135;SDS011;76795;51.360;4.546;2024-02-26T06:00:54;7.45;;;5.13;;
86135;SDS011;76795;51.360;4.546;2024-02-26T06:03:20;7.90;;;5.63;;
86135;SDS011;76795;51.360;4.546;2024-02-26T06:05:46;7.80;;;5.07;;
86135;SDS011;76795;51.360;4.546;2024-02-26T06:08:11;6.82;;;4.85;;
86135;SDS011;76795;51.360;4.546;2024-02-26T06:10:37;8.65;;;5.47;;
86135;SDS011;76795;51.360;4.546;2024-02-26T06:13:04;7.63;;;5.20;;
86135;SDS011;76795;51.360;4.546;2024-02-26T06:15:30;8.35;;;5.65;;
86135;SDS011;76795;51.360;4.546;2024-02-26T06:17:55;6.82;;;4.50;;
86135;SDS011;76795;51.360;4.546;2024-02-26T06:20:21;6.85;;;4.90;;
86135;SDS011;76795;51.360;4.546;2024-02-26T06:22:46;8.55;;;4.57;;
86135;SDS011;76795;51.360;4.546;2024-02-26T06:25:12;6.60;;;4.35;;
86135;SDS011;76795;51.360;4.546;2024-02-26T06:27:38;7.75;;;4.75;;
86135;SDS011;76795;51.360;4.546;2024-02-26T06:30:04;8.00;;;4.97;;
86135;SDS011;76795;51.360;4.546;2024-02-26T06:32:30;9.00;;;5.68;;
86135;SDS011;76795;51.360;4.546;2024-02-26T06:34:55;9.25;;;4.53;;
86135;SDS011;76795;51.360;4.546;2024-02-26T06:37:21;7.53;;;5.15;;
86135;SDS011;76795;51.360;4.546;2024-02-26T06:39:47;6.53;;;4.68;;
86135;SDS011;76795;51.360;4.546;2024-02-26T06:42:13;8.43;;;5.40;;
86135;SDS011;76795;51.360;4.546;2024-02-26T06:44:38;8.10;;;5.93;;
86135;SDS011;76795;51.360;4.546;2024-02-26T06:47:05;8.88;;;6.15;;
86135;SDS011;76795;51.360;4.546;2024-02-26T06:49:30;6.88;;;4.60;;
86135;SDS011;76795;51.360;4.546;2024-02-26T06:51:56;7.93;;;5.38;;
86135;SDS011;76795;51.360;4.546;2024-02-26T06:54:22;8.85;;;5.72;;
86135;SDS011;76795;51.360;4.546;2024-02-26T06:56:47;7.68;;;4.93;;
86135;SDS011;76795;51.360;4.546;2024-02-26T06:59:13;6.85;;;4.82;;
86135;SDS011;76795;51.360;4.546;2024-02-26T07:01:40;7.97;;;5.35;;
86135;SDS011;76795;51.360;4.546;2024-02-26T07:04:07;7.65;;;4.32;;
86135;SDS011;76795;51.360;4.546;2024-02-26T07:06:32;8.93;;;5.50;;
86135;SDS011;76795;51.360;4.546;2024-02-26T07:08:58;8.68;;;4.75;;
86135;SDS011;76795;51.360;4.546;2024-02-26T07:11:24;7.22;;;4.70;;
86135;SDS011;76795;51.360;4.546;2024-02-26T07:13:49;8.15;;;5.18;;
86135;SDS011;76795;51.360;4.546;2024-02-26T07:16:15;7.18;;;4.35;;
86135;SDS011;76795;51.360;4.546;2024-02-26T07:18:41;7.68;;;4.95;;
86135;SDS011;76795;51.360;4.546;2024-02-26T07:21:08;7.97;;;5.03;;
86135;SDS011;76795;51.360;4.546;2024-02-26T07:23:34;6.28;;;4.35;;
86135;SDS011;76795;51.360;4.546;2024-02-26T07:26:00;11.70;;;5.10;;
86135;SDS011;76795;51.360;4.546;2024-02-26T07:28:25;7.53;;;4.70;;
86135;SDS011;76795;51.360;4.546;2024-02-26T07:30:51;9.07;;;5.05;;
86135;SDS011;76795;51.360;4.546;2024-02-26T07:33:17;7.25;;;4.53;;
86135;SDS011;76795;51.360;4.546;2024-02-26T07:35:43;7.47;;;4.68;;
86135;SDS011;76795;51.360;4.546;2024-02-26T07:38:09;9.38;;;4.82;;
86135;SDS011;76795;51.360;4.546;2024-02-26T07:40:34;9.80;;;4.70;;
86135;SDS011;76795;51.360;4.546;2024-02-26T07:43:01;6.53;;;4.40;;
86135;SDS011;76795;51.360;4.546;2024-02-26T07:45:26;8.55;;;5.07;;
86135;SDS011;76795;51.360;4.546;2024-02-26T07:47:52;9.80;;;5.90;;
86135;SDS011;76795;51.360;4.546;2024-02-26T07:50:18;9.52;;;4.80;;
86135;SDS011;76795;51.360;4.546;2024-02-26T07:52:44;11.00;;;5.28;;
86135;SDS011;76795;51.360;4.546;2024-02-26T07:55:10;9.18;;;5.55;;
86135;SDS011;76795;51.360;4.546;2024-02-26T07:57:36;8.45;;;4.95;;
86135;SDS011;76795;51.360;4.546;2024-02-26T08:00:02;8.20;;;5.55;;
86135;SDS011;76795;51.360;4.546;2024-02-26T08:02:29;7.25;;;4.90;;
86135;SDS011;76795;51.360;4.546;2024-02-26T08:04:54;6.63;;;4.55;;
86135;SDS011;76795;51.360;4.546;2024-02-26T08:07:20;8.27;;;6.05;;
86135;SDS011;76795;51.360;4.546;2024-02-26T08:09:46;7.07;;;4.50;;
86135;SDS011;76795;51.360;4.546;2024-02-26T08:12:12;10.60;;;6.38;;
86135;SDS011;76795;51.360;4.546;2024-02-26T08:14:38;10.13;;;5.90;;
86135;SDS011;76795;51.360;4.546;2024-02-26T08:17:04;7.82;;;4.60;;
86135;SDS011;76795;51.360;4.546;2024-02-26T08:19:30;7.72;;;5.65;;
86135;SDS011;76795;51.360;4.546;2024-02-26T08:21:56;9.88;;;6.68;;
86135;SDS011;76795;51.360;4.546;2024-02-26T08:24:22;8.48;;;6.15;;
86135;SDS011;76795;51.360;4.546;2024-02-26T08:26:48;9.18;;;5.90;;
86135;SDS011;76795;51.360;4.546;2024-02-26T08:29:14;8.93;;;6.05;;
86135;SDS011;76795;51.360;4.546;2024-02-26T08:31:40;9.32;;;6.47;;
86135;SDS011;76795;51.360;4.546;2024-02-26T08:34:06;9.95;;;7.28;;
86135;SDS011;76795;51.360;4.546;2024-02-26T08:36:32;10.40;;;6.63;;
86135;SDS011;76795;51.360;4.546;2024-02-26T08:38:59;10.15;;;6.55;;
86135;SDS011;76795;51.360;4.546;2024-02-26T08:41:24;11.18;;;7.45;;
86135;SDS011;76795;51.360;4.546;2024-02-26T08:43:50;9.30;;;6.35;;
86135;SDS011;76795;51.360;4.546;2024-02-26T08:46:16;10.65;;;6.60;;
86135;SDS011;76795;51.360;4.546;2024-02-26T08:48:42;12.43;;;8.70;;
86135;SDS011;76795;51.360;4.546;2024-02-26T08:51:08;11.27;;;7.43;;
86135;SDS011;76795;51.360;4.546;2024-02-26T08:53:35;9.27;;;5.97;;
86135;SDS011;76795;51.360;4.546;2024-02-26T08:56:01;8.15;;;6.60;;
86135;SDS011;76795;51.360;4.546;2024-02-26T08:58:27;13.90;;;8.15;;
86135;SDS011;76795;51.360;4.546;2024-02-26T09:00:53;10.05;;;7.60;;
86135;SDS011;76795;51.360;4.546;2024-02-26T09:03:20;9.85;;;6.60;;
86135;SDS011;76795;51.360;4.546;2024-02-26T09:05:46;10.38;;;7.03;;
86135;SDS011;76795;51.360;4.546;2024-02-26T09:08:11;10.38;;;7.18;;
86135;SDS011;76795;51.360;4.546;2024-02-26T09:10:38;11.15;;;8.15;;
86135;SDS011;76795;51.360;4.546;2024-02-26T09:13:04;10.85;;;6.88;;
86135;SDS011;76795;51.360;4.546;2024-02-26T09:15:30;10.75;;;7.85;;
86135;SDS011;76795;51.360;4.546;2024-02-26T09:17:55;12.20;;;7.97;;
86135;SDS011;76795;51.360;4.546;2024-02-26T09:20:21;9.95;;;6.57;;
86135;SDS011;76795;51.360;4.546;2024-02-26T09:22:48;10.35;;;7.35;;
86135;SDS011;76795;51.360;4.546;2024-02-26T09:25:14;10.95;;;8.18;;
86135;SDS011;76795;51.360;4.546;2024-02-26T09:27:41;10.10;;;6.75;;
86135;SDS011;76795;51.360;4.546;2024-02-26T09:30:08;10.80;;;6.57;;
86135;SDS011;76795;51.360;4.546;2024-02-26T09:32:35;11.98;;;8.10;;
86135;SDS011;76795;51.360;4.546;2024-02-26T09:35:01;12.25;;;7.65;;
86135;SDS011;76795;51.360;4.546;2024-02-26T09:37:27;13.85;;;8.77;;
86135;SDS011;76795;51.360;4.546;2024-02-26T09:39:53;12.40;;;8.48;;
86135;SDS011;76795;51.360;4.546;2024-02-26T09:42:19;12.23;;;8.18;;
86135;SDS011;76795;51.360;4.546;2024-02-26T09:44:44;11.73;;;8.30;;
86135;SDS011;76795;51.360;4.546;2024-02-26T09:47:13;15.02;;;8.18;;
86135;SDS011;76795;51.360;4.546;2024-02-26T09:49:42;13.00;;;8.57;;
86135;SDS011;76795;51.360;4.546;2024-02-26T09:52:08;15.63;;;10.35;;
86135;SDS011;76795;51.360;4.546;2024-02-26T09:54:35;11.68;;;7.78;;
86135;SDS011;76795;51.360;4.546;2024-02-26T09:57:02;12.95;;;8.68;;
86135;SDS011;76795;51.360;4.546;2024-02-26T09:59:35;13.13;;;9.10;;
86135;SDS011;76795;51.360;4.546;2024-02-26T10:02:12;16.80;;;11.13;;
86135;SDS011;76795;51.360;4.546;2024-02-26T10:04:41;18.20;;;11.52;;
86135;SDS011;76795;51.360;4.546;2024-02-26T10:07:12;15.35;;;8.65;;
86135;SDS011;76795;51.360;4.546;2024-02-26T10:09:38;16.52;;;10.70;;
86135;SDS011;76795;51.360;4.546;2024-02-26T10:12:05;16.77;;;11.20;;
86135;SDS011;76795;51.360;4.546;2024-02-26T10:14:33;16.65;;;10.35;;
86135;SDS011;76795;51.360;4.546;2024-02-26T10:16:59;16.05;;;11.07;;
86135;SDS011;76795;51.360;4.546;2024-02-26T10:19:27;18.60;;;12.15;;
86135;SDS011;76795;51.360;4.546;2024-02-26T10:21:57;15.25;;;10.02;;
86135;SDS011;76795;51.360;4.546;2024-02-26T10:24:24;18.65;;;12.40;;
86135;SDS011;76795;51.360;4.546;2024-02-26T10:26:50;18.52;;;10.50;;
86135;SDS011;76795;51.360;4.546;2024-02-26T10:29:20;17.42;;;10.38;;
86135;SDS011;76795;51.360;4.546;2024-02-26T10:31:46;17.73;;;11.48;;
86135;SDS011;76795;51.360;4.546;2024-02-26T10:34:12;14.27;;;9.55;;
86135;SDS011;76795;51.360;4.546;2024-02-26T10:36:40;16.58;;;11.65;;
86135;SDS011;76795;51.360;4.546;2024-02-26T10:39:06;17.10;;;10.75;;
86135;SDS011;76795;51.360;4.546;2024-02-26T10:41:32;17.33;;;11.60;;
86135;SDS011;76795;51.360;4.546;2024-02-26T10:43:58;21.23;;;12.93;;
86135;SDS011;76795;51.360;4.546;2024-02-26T10:46:25;21.52;;;13.43;;
86135;SDS011;76795;51.360;4.546;2024-02-26T10:48:51;16.98;;;10.27;;
86135;SDS011;76795;51.360;4.546;2024-02-26T10:51:28;20.23;;;11.98;;
86135;SDS011;76795;51.360;4.546;2024-02-26T10:53:56;17.73;;;9.98;;
86135;SDS011;76795;51.360;4.546;2024-02-26T10:56:27;18.08;;;10.13;;
86135;SDS011;76795;51.360;4.546;2024-02-26T10:58:57;16.83;;;10.93;;
86135;SDS011;76795;51.360;4.546;2024-02-26T11:01:24;15.27;;;8.13;;
86135;SDS011;76795;51.360;4.546;2024-02-26T11:03:52;15.20;;;9.30;;
86135;SDS011;76795;51.360;4.546;2024-02-26T11:06:18;17.80;;;10.52;;
86135;SDS011;76795;51.360;4.546;2024-02-26T11:08:49;22.35;;;12.95;;
86135;SDS011;76795;51.360;4.546;2024-02-26T11:11:16;22.40;;;13.82;;
86135;SDS011;76795;51.360;4.546;2024-02-26T11:13:47;21.50;;;11.75;;
86135;SDS011;76795;51.360;4.546;2024-02-26T11:16:20;20.55;;;12.32;;
86135;SDS011;76795;51.360;4.546;2024-02-26T11:18:47;18.27;;;11.55;;
86135;SDS011;76795;51.360;4.546;2024-02-26T11:21:16;17.20;;;10.40;;
86135;SDS011;76795;51.360;4.546;2024-02-26T11:23:45;17.02;;;9.65;;
86135;SDS011;76795;51.360;4.546;2024-02-26T11:26:11;20.75;;;11.93;;
86135;SDS011;76795;51.360;4.546;2024-02-26T11:28:41;15.77;;;8.88;;
86135;SDS011;76795;51.360;4.546;2024-02-26T11:31:08;17.85;;;10.30;;
86135;SDS011;76795;51.360;4.546;2024-02-26T11:33:34;22.60;;;11.05;;
86135;SDS011;76795;51.360;4.546;2024-02-26T11:36:01;17.35;;;9.88;;
86135;SDS011;76795;51.360;4.546;2024-02-26T11:38:32;19.02;;;11.50;;
86135;SDS011;76795;51.360;4.546;2024-02-26T11:40:58;17.10;;;9.50;;
86135;SDS011;76795;51.360;4.546;2024-02-26T11:46:27;16.30;;;10.38;;
86135;SDS011;76795;51.360;4.546;2024-02-26T11:49:02;19.45;;;11.25;;
86135;SDS011;76795;51.360;4.546;2024-02-26T11:51:50;13.02;;;7.43;;
86135;SDS011;76795;51.360;4.546;2024-02-26T11:57:27;18.60;;;12.10;;
86135;SDS011;76795;51.360;4.546;2024-02-26T12:05:30;19.77;;;10.15;;
86135;SDS011;76795;51.360;4.546;2024-02-26T12:10:32;14.25;;;9.30;;
86135;SDS011;76795;51.360;4.546;2024-02-26T12:13:07;14.68;;;9.10;;
86135;SDS011;76795;51.360;4.546;2024-02-26T12:15:38;14.90;;;9.00;;
86135;SDS011;76795;51.360;4.546;2024-02-26T12:18:05;12.35;;;8.13;;
86135;SDS011;76795;51.360;4.546;2024-02-26T12:20:32;14.85;;;9.25;;
86135;SDS011;76795;51.360;4.546;2024-02-26T12:22:58;14.77;;;9.10;;
86135;SDS011;76795;51.360;4.546;2024-02-26T12:25:25;13.93;;;8.93;;
86135;SDS011;76795;51.360;4.546;2024-02-26T12:27:53;15.35;;;9.35;;
86135;SDS011;76795;51.360;4.546;2024-02-26T12:30:19;9.40;;;6.43;;
86135;SDS011;76795;51.360;4.546;2024-02-26T12:32:49;13.80;;;8.45;;
86135;SDS011;76795;51.360;4.546;2024-02-26T12:35:16;13.20;;;8.52;;
86135;SDS011;76795;51.360;4.546;2024-02-26T12:37:45;13.07;;;7.95;;
86135;SDS011;76795;51.360;4.546;2024-02-26T12:40:11;11.33;;;7.30;;
86135;SDS011;76795;51.360;4.546;2024-02-26T12:42:40;12.82;;;8.25;;
86135;SDS011;76795;51.360;4.546;2024-02-26T12:45:07;13.30;;;8.70;;
86135;SDS011;76795;51.360;4.546;2024-02-26T12:47:39;12.60;;;8.40;;
86135;SDS011;76795;51.360;4.546;2024-02-26T12:50:07;18.88;;;11.25;;
86135;SDS011;76795;51.360;4.546;2024-02-26T12:52:34;9.98;;;7.38;;
86135;SDS011;76795;51.360;4.546;2024-02-26T12:55:03;11.32;;;6.82;;
86135;SDS011;76795;51.360;4.546;2024-02-26T12:57:31;15.38;;;9.68;;
86135;SDS011;76795;51.360;4.546;2024-02-26T13:00:00;9.63;;;6.38;;
86135;SDS011;76795;51.360;4.546;2024-02-26T13:02:27;11.60;;;7.63;;
86135;SDS011;76795;51.360;4.546;2024-02-26T13:04:53;12.02;;;7.47;;
86135;SDS011;76795;51.360;4.546;2024-02-26T13:07:20;14.00;;;8.40;;
86135;SDS011;76795;51.360;4.546;2024-02-26T13:09:46;10.25;;;7.95;;
86135;SDS011;76795;51.360;4.546;2024-02-26T13:12:12;12.90;;;8.25;;
86135;SDS011;76795;51.360;4.546;2024-02-26T13:14:39;11.52;;;7.53;;
86135;SDS011;76795;51.360;4.546;2024-02-26T13:17:05;11.35;;;7.07;;
86135;SDS011;76795;51.360;4.546;2024-02-26T13:19:30;12.52;;;7.80;;
86135;SDS011;76795;51.360;4.546;2024-02-26T13:22:03;13.25;;;7.90;;
86135;SDS011;76795;51.360;4.546;2024-02-26T13:24:29;12.50;;;8.18;;
86135;SDS011;76795;51.360;4.546;2024-02-26T13:26:56;11.48;;;7.20;;
86135;SDS011;76795;51.360;4.546;2024-02-26T13:29:22;14.02;;;8.80;;
86135;SDS011;76795;51.360;4.546;2024-02-26T13:31:47;14.48;;;10.50;;
86135;SDS011;76795;51.360;4.546;2024-02-26T13:34:25;16.17;;;11.10;;
86135;SDS011;76795;51.360;4.546;2024-02-26T13:36:51;19.33;;;10.00;;
86135;SDS011;76795;51.360;4.546;2024-02-26T13:39:24;14.48;;;9.02;;
86135;SDS011;76795;51.360;4.546;2024-02-26T13:41:52;12.75;;;9.63;;
86135;SDS011;76795;51.360;4.546;2024-02-26T13:44:21;16.25;;;10.68;;
86135;SDS011;76795;51.360;4.546;2024-02-26T13:46:47;16.25;;;10.00;;
86135;SDS011;76795;51.360;4.546;2024-02-26T13:49:14;13.57;;;9.43;;
86135;SDS011;76795;51.360;4.546;2024-02-26T13:51:40;13.75;;;9.65;;
86135;SDS011;76795;51.360;4.546;2024-02-26T13:54:06;15.60;;;8.98;;
86135;SDS011;76795;51.360;4.546;2024-02-26T13:56:32;11.65;;;7.82;;
86135;SDS011;76795;51.360;4.546;2024-02-26T13:58:58;9.88;;;6.68;;
86135;SDS011;76795;51.360;4.546;2024-02-26T14:01:24;10.40;;;6.72;;
86135;SDS011;76795;51.360;4.546;2024-02-26T14:03:50;11.27;;;6.82;;
86135;SDS011;76795;51.360;4.546;2024-02-26T14:06:16;10.80;;;7.30;;
86135;SDS011;76795;51.360;4.546;2024-02-26T14:08:42;11.98;;;7.57;;
86135;SDS011;76795;51.360;4.546;2024-02-26T14:11:08;10.25;;;6.47;;
86135;SDS011;76795;51.360;4.546;2024-02-26T14:13:33;11.70;;;7.28;;
86135;SDS011;76795;51.360;4.546;2024-02-26T14:15:59;10.95;;;7.30;;
86135;SDS011;76795;51.360;4.546;2024-02-26T14:18:25;11.52;;;6.95;;
86135;SDS011;76795;51.360;4.546;2024-02-26T14:20:52;11.40;;;7.55;;
86135;SDS011;76795;51.360;4.546;2024-02-26T14:23:17;14.45;;;8.95;;
86135;SDS011;76795;51.360;4.546;2024-02-26T14:25:43;13.55;;;8.30;;
86135;SDS011;76795;51.360;4.546;2024-02-26T14:28:09;13.90;;;9.35;;
86135;SDS011;76795;51.360;4.546;2024-02-26T14:30:34;11.77;;;7.57;;
86135;SDS011;76795;51.360;4.546;2024-02-26T14:33:00;13.80;;;8.15;;
86135;SDS011;76795;51.360;4.546;2024-02-26T14:35:26;12.73;;;8.23;;
86135;SDS011;76795;51.360;4.546;2024-02-26T14:37:51;13.55;;;8.57;;
86135;SDS011;76795;51.360;4.546;2024-02-26T14:40:17;11.50;;;7.63;;
86135;SDS011;76795;51.360;4.546;2024-02-26T14:42:44;14.45;;;9.10;;
86135;SDS011;76795;51.360;4.546;2024-02-26T14:45:10;14.20;;;9.68;;
86135;SDS011;76795;51.360;4.546;2024-02-26T14:47:36;14.43;;;8.85;;
86135;SDS011;76795;51.360;4.546;2024-02-26T14:50:02;11.93;;;7.57;;